sensor_id;sensor_type;location;lat;lon;timestamp;temperature;humidity
20498;DHT22;10407;53.238;10.448;2023-07-31T00:00:55;16.70;99.90
20498;DHT22;10407;53.238;10.448;2023-07-31T00:03:22;16.70;99.90
20498;DHT22;10407;53.238;10.448;2023-07-31T00:05:49;16.80;99.90
20498;DHT22;10407;53.238;10.448;2023-07-31T00:08:17;16.70;99.90
20498;DHT22;10407;53.238;10.448;2023-07-31T00:10:44;16.70;99.90
20498;DHT22;10407;53.238;10.448;2023-07-31T00:13:12;16.80;99.90
20498;DHT22;10407;53.238;10.448;2023-07-31T00:15:39;16.80;99.90
20498;DHT22;10407;53.238;10.448;2023-07-31T00:18:07;16.90;99.90
20498;DHT22;10407;53.238;10.448;2023-07-31T00:20:35;16.70;99.90
20498;DHT22;10407;53.238;10.448;2023-07-31T00:23:02;16.80;99.90
20498;DHT22;10407;53.238;10.448;2023-07-31T00:25:30;16.70;99.90
20498;DHT22;10407;53.238;10.448;2023-07-31T00:27:57;16.80;99.90
20498;DHT22;10407;53.238;10.448;2023-07-31T00:30:25;16.80;99.90
20498;DHT22;10407;53.238;10.448;2023-07-31T00:32:53;16.80;99.90
20498;DHT22;10407;53.238;10.448;2023-07-31T00:35:21;16.90;99.90
20498;DHT22;10407;53.238;10.448;2023-07-31T00:37:48;16.90;99.90
20498;DHT22;10407;53.238;10.448;2023-07-31T00:40:16;16.80;99.90
20498;DHT22;10407;53.238;10.448;2023-07-31T00:42:43;16.90;99.90
20498;DHT22;10407;53.238;10.448;2023-07-31T00:45:11;16.80;99.90
20498;DHT22;10407;53.238;10.448;2023-07-31T00:47:38;16.50;99.90
20498;DHT22;10407;53.238;10.448;2023-07-31T00:50:07;16.60;99.90
20498;DHT22;10407;53.238;10.448;2023-07-31T00:52:36;16.80;99.90
20498;DHT22;10407;53.238;10.448;2023-07-31T00:55:04;16.80;99.90
20498;DHT22;10407;53.238;10.448;2023-07-31T00:57:33;16.80;99.90
20498;DHT22;10407;53.238;10.448;2023-07-31T01:00:00;16.70;99.90
20498;DHT22;10407;53.238;10.448;2023-07-31T01:02:28;16.70;99.90
20498;DHT22;10407;53.238;10.448;2023-07-31T01:04:55;16.80;99.90
20498;DHT22;10407;53.238;10.448;2023-07-31T01:07:32;16.80;99.90
20498;DHT22;10407;53.238;10.448;2023-07-31T01:12:39;16.90;99.90
20498;DHT22;10407;53.238;10.448;2023-07-31T01:15:09;16.90;99.90
20498;DHT22;10407;53.238;10.448;2023-07-31T01:17:38;17.00;99.90
20498;DHT22;10407;53.238;10.448;2023-07-31T01:20:11;16.80;99.90
20498;DHT22;10407;53.238;10.448;2023-07-31T01:23:08;16.90;99.90
20498;DHT22;10407;53.238;10.448;2023-07-31T01:26:00;16.80;99.90
20498;DHT22;10407;53.238;10.448;2023-07-31T01:28:37;16.90;99.90
20498;DHT22;10407;53.238;10.448;2023-07-31T01:31:00;16.90;99.90
20498;DHT22;10407;53.238;10.448;2023-07-31T01:33:30;17.00;99.90
20498;DHT22;10407;53.238;10.448;2023-07-31T01:35:58;17.00;99.90
20498;DHT22;10407;53.238;10.448;2023-07-31T01:38:25;17.10;99.90
20498;DHT22;10407;53.238;10.448;2023-07-31T01:40:53;16.90;99.90
20498;DHT22;10407;53.238;10.448;2023-07-31T01:43:21;16.90;99.90
20498;DHT22;10407;53.238;10.448;2023-07-31T01:45:49;16.90;99.90
20498;DHT22;10407;53.238;10.448;2023-07-31T01:48:17;16.90;99.90
20498;DHT22;10407;53.238;10.448;2023-07-31T01:50:44;16.90;99.90
20498;DHT22;10407;53.238;10.448;2023-07-31T01:53:12;16.90;99.90
20498;DHT22;10407;53.238;10.448;2023-07-31T01:55:39;16.90;99.90
20498;DHT22;10407;53.238;10.448;2023-07-31T01:58:07;16.60;99.90
20498;DHT22;10407;53.238;10.448;2023-07-31T02:00:34;16.60;99.90
20498;DHT22;10407;53.238;10.448;2023-07-31T02:03:02;16.50;99.90
20498;DHT22;10407;53.238;10.448;2023-07-31T02:05:29;16.50;99.90
20498;DHT22;10407;53.238;10.448;2023-07-31T02:07:57;16.60;99.90
20498;DHT22;10407;53.238;10.448;2023-07-31T02:10:25;16.70;99.90
20498;DHT22;10407;53.238;10.448;2023-07-31T02:12:52;16.70;99.90
20498;DHT22;10407;53.238;10.448;2023-07-31T02:15:20;16.70;99.90
20498;DHT22;10407;53.238;10.448;2023-07-31T02:17:47;16.80;99.90
20498;DHT22;10407;53.238;10.448;2023-07-31T02:20:15;16.80;99.90
20498;DHT22;10407;53.238;10.448;2023-07-31T02:22:43;16.70;99.90
20498;DHT22;10407;53.238;10.448;2023-07-31T02:25:10;16.70;99.90
20498;DHT22;10407;53.238;10.448;2023-07-31T02:27:38;16.60;99.90
20498;DHT22;10407;53.238;10.448;2023-07-31T02:30:06;16.50;99.90
20498;DHT22;10407;53.238;10.448;2023-07-31T02:32:34;16.50;99.90
20498;DHT22;10407;53.238;10.448;2023-07-31T02:35:01;16.50;99.90
20498;DHT22;10407;53.238;10.448;2023-07-31T02:37:29;16.60;99.90
20498;DHT22;10407;53.238;10.448;2023-07-31T02:39:56;16.50;99.90
20498;DHT22;10407;53.238;10.448;2023-07-31T02:42:24;16.40;99.90
20498;DHT22;10407;53.238;10.448;2023-07-31T02:44:51;16.50;99.90
20498;DHT22;10407;53.238;10.448;2023-07-31T02:47:21;16.60;99.90
20498;DHT22;10407;53.238;10.448;2023-07-31T02:49:49;16.50;99.90
20498;DHT22;10407;53.238;10.448;2023-07-31T02:52:16;16.60;99.90
20498;DHT22;10407;53.238;10.448;2023-07-31T02:54:44;16.50;99.90
20498;DHT22;10407;53.238;10.448;2023-07-31T02:57:12;16.60;99.90
20498;DHT22;10407;53.238;10.448;2023-07-31T02:59:39;16.70;99.90
20498;DHT22;10407;53.238;10.448;2023-07-31T03:02:07;16.60;99.90
20498;DHT22;10407;53.238;10.448;2023-07-31T03:07:56;16.60;99.90
20498;DHT22;10407;53.238;10.448;2023-07-31T03:10:24;16.50;99.90
20498;DHT22;10407;53.238;10.448;2023-07-31T03:12:51;16.60;99.90
20498;DHT22;10407;53.238;10.448;2023-07-31T03:15:19;16.50;99.90
20498;DHT22;10407;53.238;10.448;2023-07-31T03:17:46;16.50;99.90
20498;DHT22;10407;53.238;10.448;2023-07-31T03:20:14;16.70;99.90
20498;DHT22;10407;53.238;10.448;2023-07-31T03:22:41;16.60;99.90
20498;DHT22;10407;53.238;10.448;2023-07-31T03:25:11;16.40;99.90
20498;DHT22;10407;53.238;10.448;2023-07-31T03:27:39;16.50;99.90
20498;DHT22;10407;53.238;10.448;2023-07-31T03:30:07;16.40;99.90
20498;DHT22;10407;53.238;10.448;2023-07-31T03:32:34;16.30;99.90
20498;DHT22;10407;53.238;10.448;2023-07-31T03:35:02;16.40;99.90
20498;DHT22;10407;53.238;10.448;2023-07-31T03:37:31;16.50;99.90
20498;DHT22;10407;53.238;10.448;2023-07-31T03:39:59;16.60;99.90
20498;DHT22;10407;53.238;10.448;2023-07-31T03:42:26;16.60;99.90
20498;DHT22;10407;53.238;10.448;2023-07-31T03:44:54;16.70;99.90
20498;DHT22;10407;53.238;10.448;2023-07-31T03:50:43;16.70;99.90
20498;DHT22;10407;53.238;10.448;2023-07-31T03:53:11;16.90;99.90
20498;DHT22;10407;53.238;10.448;2023-07-31T03:55:39;16.80;99.90
20498;DHT22;10407;53.238;10.448;2023-07-31T03:58:06;17.00;99.90
20498;DHT22;10407;53.238;10.448;2023-07-31T04:00:34;17.00;99.90
20498;DHT22;10407;53.238;10.448;2023-07-31T04:03:01;17.10;99.90
20498;DHT22;10407;53.238;10.448;2023-07-31T04:05:31;16.90;99.90
20498;DHT22;10407;53.238;10.448;2023-07-31T04:07:59;16.90;99.90
20498;DHT22;10407;53.238;10.448;2023-07-31T04:10:27;16.70;99.90
20498;DHT22;10407;53.238;10.448;2023-07-31T04:12:55;16.60;99.90
20498;DHT22;10407;53.238;10.448;2023-07-31T04:15:22;16.50;99.90
20498;DHT22;10407;53.238;10.448;2023-07-31T04:17:50;16.70;99.90
20498;DHT22;10407;53.238;10.448;2023-07-31T04:20:18;16.80;99.90
20498;DHT22;10407;53.238;10.448;2023-07-31T04:22:45;16.80;99.90
20498;DHT22;10407;53.238;10.448;2023-07-31T04:25:13;16.90;99.90
20498;DHT22;10407;53.238;10.448;2023-07-31T04:27:40;16.60;99.90
20498;DHT22;10407;53.238;10.448;2023-07-31T04:30:08;16.50;99.90
20498;DHT22;10407;53.238;10.448;2023-07-31T04:32:36;16.80;99.90
20498;DHT22;10407;53.238;10.448;2023-07-31T04:35:04;17.10;99.90
20498;DHT22;10407;53.238;10.448;2023-07-31T04:37:31;17.10;99.90
20498;DHT22;10407;53.238;10.448;2023-07-31T04:39:59;17.00;99.90
20498;DHT22;10407;53.238;10.448;2023-07-31T04:42:26;17.00;99.90
20498;DHT22;10407;53.238;10.448;2023-07-31T04:44:54;16.90;99.90
20498;DHT22;10407;53.238;10.448;2023-07-31T04:47:21;17.00;99.90
20498;DHT22;10407;53.238;10.448;2023-07-31T04:49:49;16.90;99.90
20498;DHT22;10407;53.238;10.448;2023-07-31T04:52:17;17.10;99.90
20498;DHT22;10407;53.238;10.448;2023-07-31T04:54:44;17.10;99.90
20498;DHT22;10407;53.238;10.448;2023-07-31T04:57:12;16.90;99.90
20498;DHT22;10407;53.238;10.448;2023-07-31T04:59:39;16.90;99.90
20498;DHT22;10407;53.238;10.448;2023-07-31T05:02:08;16.50;99.90
20498;DHT22;10407;53.238;10.448;2023-07-31T05:04:36;16.70;99.90
20498;DHT22;10407;53.238;10.448;2023-07-31T05:07:04;16.60;99.90
20498;DHT22;10407;53.238;10.448;2023-07-31T05:09:31;16.70;99.90
20498;DHT22;10407;53.238;10.448;2023-07-31T05:11:59;16.70;99.90
20498;DHT22;10407;53.238;10.448;2023-07-31T05:14:27;16.80;99.90
20498;DHT22;10407;53.238;10.448;2023-07-31T05:16:54;17.00;99.90
20498;DHT22;10407;53.238;10.448;2023-07-31T05:19:22;17.10;99.90
20498;DHT22;10407;53.238;10.448;2023-07-31T05:21:49;17.10;99.90
20498;DHT22;10407;53.238;10.448;2023-07-31T05:24:17;17.20;99.90
20498;DHT22;10407;53.238;10.448;2023-07-31T05:26:44;17.10;99.90
20498;DHT22;10407;53.238;10.448;2023-07-31T05:29:12;17.00;99.90
20498;DHT22;10407;53.238;10.448;2023-07-31T05:31:39;17.00;99.90
20498;DHT22;10407;53.238;10.448;2023-07-31T05:34:07;17.10;99.90
20498;DHT22;10407;53.238;10.448;2023-07-31T05:36:34;17.30;99.90
20498;DHT22;10407;53.238;10.448;2023-07-31T05:39:02;17.50;99.90
20498;DHT22;10407;53.238;10.448;2023-07-31T05:41:31;17.40;99.90
20498;DHT22;10407;53.238;10.448;2023-07-31T05:43:58;17.30;99.90
20498;DHT22;10407;53.238;10.448;2023-07-31T05:46:26;17.30;99.90
20498;DHT22;10407;53.238;10.448;2023-07-31T05:48:53;17.30;99.90
20498;DHT22;10407;53.238;10.448;2023-07-31T05:51:21;17.30;99.90
20498;DHT22;10407;53.238;10.448;2023-07-31T05:53:49;17.10;99.90
20498;DHT22;10407;53.238;10.448;2023-07-31T05:56:16;17.10;99.90
20498;DHT22;10407;53.238;10.448;2023-07-31T05:58:44;17.00;99.90
20498;DHT22;10407;53.238;10.448;2023-07-31T06:01:11;17.30;99.90
20498;DHT22;10407;53.238;10.448;2023-07-31T06:03:39;17.40;99.90
20498;DHT22;10407;53.238;10.448;2023-07-31T06:06:06;17.50;99.90
20498;DHT22;10407;53.238;10.448;2023-07-31T06:08:34;17.70;99.90
20498;DHT22;10407;53.238;10.448;2023-07-31T06:11:01;17.50;99.90
20498;DHT22;10407;53.238;10.448;2023-07-31T06:13:29;17.70;99.90
20498;DHT22;10407;53.238;10.448;2023-07-31T06:15:56;17.60;99.90
20498;DHT22;10407;53.238;10.448;2023-07-31T06:18:25;17.90;99.90
20498;DHT22;10407;53.238;10.448;2023-07-31T06:20:53;18.00;99.90
20498;DHT22;10407;53.238;10.448;2023-07-31T06:23:20;17.90;99.90
20498;DHT22;10407;53.238;10.448;2023-07-31T06:25:48;18.00;99.90
20498;DHT22;10407;53.238;10.448;2023-07-31T06:28:15;18.00;99.90
20498;DHT22;10407;53.238;10.448;2023-07-31T06:30:43;18.00;99.90
20498;DHT22;10407;53.238;10.448;2023-07-31T06:33:10;18.20;99.90
20498;DHT22;10407;53.238;10.448;2023-07-31T06:35:38;18.10;99.90
20498;DHT22;10407;53.238;10.448;2023-07-31T06:38:06;18.00;99.90
20498;DHT22;10407;53.238;10.448;2023-07-31T06:40:33;18.10;99.90
20498;DHT22;10407;53.238;10.448;2023-07-31T06:43:01;18.20;99.90
20498;DHT22;10407;53.238;10.448;2023-07-31T06:45:30;18.00;99.90
20498;DHT22;10407;53.238;10.448;2023-07-31T06:47:58;17.90;99.90
20498;DHT22;10407;53.238;10.448;2023-07-31T06:50:28;18.10;99.90
20498;DHT22;10407;53.238;10.448;2023-07-31T06:52:55;18.10;99.90
20498;DHT22;10407;53.238;10.448;2023-07-31T06:55:23;18.10;99.90
20498;DHT22;10407;53.238;10.448;2023-07-31T06:57:53;18.50;99.90
20498;DHT22;10407;53.238;10.448;2023-07-31T07:00:22;18.60;99.90
20498;DHT22;10407;53.238;10.448;2023-07-31T07:02:50;18.50;99.90
20498;DHT22;10407;53.238;10.448;2023-07-31T07:05:18;18.30;99.90
20498;DHT22;10407;53.238;10.448;2023-07-31T07:07:49;18.30;99.90
20498;DHT22;10407;53.238;10.448;2023-07-31T07:10:15;18.50;99.90
20498;DHT22;10407;53.238;10.448;2023-07-31T07:12:42;18.80;99.90
20498;DHT22;10407;53.238;10.448;2023-07-31T07:15:10;18.20;99.90
20498;DHT22;10407;53.238;10.448;2023-07-31T07:17:38;18.50;99.90
20498;DHT22;10407;53.238;10.448;2023-07-31T07:20:06;18.70;99.90
20498;DHT22;10407;53.238;10.448;2023-07-31T07:22:34;18.80;99.90
20498;DHT22;10407;53.238;10.448;2023-07-31T07:25:03;18.50;99.90
20498;DHT22;10407;53.238;10.448;2023-07-31T07:27:31;18.60;99.90
20498;DHT22;10407;53.238;10.448;2023-07-31T07:29:58;18.70;99.90
20498;DHT22;10407;53.238;10.448;2023-07-31T07:32:26;18.30;99.90
20498;DHT22;10407;53.238;10.448;2023-07-31T07:34:54;18.30;99.90
20498;DHT22;10407;53.238;10.448;2023-07-31T07:37:23;18.50;99.90
20498;DHT22;10407;53.238;10.448;2023-07-31T07:39:50;18.20;99.90
20498;DHT22;10407;53.238;10.448;2023-07-31T07:42:18;18.10;99.90
20498;DHT22;10407;53.238;10.448;2023-07-31T07:44:45;18.10;99.90
20498;DHT22;10407;53.238;10.448;2023-07-31T07:47:13;18.20;99.90
20498;DHT22;10407;53.238;10.448;2023-07-31T07:49:41;18.30;99.90
20498;DHT22;10407;53.238;10.448;2023-07-31T07:52:08;17.80;99.90
20498;DHT22;10407;53.238;10.448;2023-07-31T07:54:36;17.90;99.90
20498;DHT22;10407;53.238;10.448;2023-07-31T07:57:03;18.00;99.90
20498;DHT22;10407;53.238;10.448;2023-07-31T08:02:53;18.40;99.90
20498;DHT22;10407;53.238;10.448;2023-07-31T08:05:20;18.50;99.90
20498;DHT22;10407;53.238;10.448;2023-07-31T08:07:48;18.10;99.90
20498;DHT22;10407;53.238;10.448;2023-07-31T08:10:15;18.20;99.90
20498;DHT22;10407;53.238;10.448;2023-07-31T08:12:43;18.20;99.90
20498;DHT22;10407;53.238;10.448;2023-07-31T08:15:11;18.30;99.90
20498;DHT22;10407;53.238;10.448;2023-07-31T08:17:38;18.50;99.90
20498;DHT22;10407;53.238;10.448;2023-07-31T08:20:07;18.50;99.90
20498;DHT22;10407;53.238;10.448;2023-07-31T08:22:34;18.40;99.90
20498;DHT22;10407;53.238;10.448;2023-07-31T08:25:02;18.50;99.90
20498;DHT22;10407;53.238;10.448;2023-07-31T08:27:29;18.50;99.90
20498;DHT22;10407;53.238;10.448;2023-07-31T08:29:57;18.50;99.90
20498;DHT22;10407;53.238;10.448;2023-07-31T08:32:25;18.50;99.90
20498;DHT22;10407;53.238;10.448;2023-07-31T08:34:52;18.60;99.90
20498;DHT22;10407;53.238;10.448;2023-07-31T08:37:20;18.50;99.90
20498;DHT22;10407;53.238;10.448;2023-07-31T08:39:47;18.50;99.90
20498;DHT22;10407;53.238;10.448;2023-07-31T08:42:15;18.60;99.90
20498;DHT22;10407;53.238;10.448;2023-07-31T08:44:43;18.40;99.90
20498;DHT22;10407;53.238;10.448;2023-07-31T08:47:13;18.50;99.90
20498;DHT22;10407;53.238;10.448;2023-07-31T08:49:41;18.20;99.90
20498;DHT22;10407;53.238;10.448;2023-07-31T08:52:10;18.30;99.90
20498;DHT22;10407;53.238;10.448;2023-07-31T08:54:38;18.30;99.90
20498;DHT22;10407;53.238;10.448;2023-07-31T08:57:06;18.30;99.90
20498;DHT22;10407;53.238;10.448;2023-07-31T08:59:35;18.40;99.90
20498;DHT22;10407;53.238;10.448;2023-07-31T09:02:06;18.50;99.90
20498;DHT22;10407;53.238;10.448;2023-07-31T09:04:34;18.40;99.90
20498;DHT22;10407;53.238;10.448;2023-07-31T09:07:03;18.40;99.90
20498;DHT22;10407;53.238;10.448;2023-07-31T09:09:32;18.40;99.90
20498;DHT22;10407;53.238;10.448;2023-07-31T09:11:59;18.50;99.90
20498;DHT22;10407;53.238;10.448;2023-07-31T09:14:28;18.50;99.90
20498;DHT22;10407;53.238;10.448;2023-07-31T09:16:56;18.70;99.90
20498;DHT22;10407;53.238;10.448;2023-07-31T09:19:35;18.70;99.90
20498;DHT22;10407;53.238;10.448;2023-07-31T09:22:00;18.60;99.90
20498;DHT22;10407;53.238;10.448;2023-07-31T09:24:29;18.50;99.90
20498;DHT22;10407;53.238;10.448;2023-07-31T09:26:59;18.50;99.90
20498;DHT22;10407;53.238;10.448;2023-07-31T09:29:28;18.60;99.90
20498;DHT22;10407;53.238;10.448;2023-07-31T09:31:56;18.60;99.90
20498;DHT22;10407;53.238;10.448;2023-07-31T09:34:38;18.70;99.90
20498;DHT22;10407;53.238;10.448;2023-07-31T09:37:08;18.70;99.90
20498;DHT22;10407;53.238;10.448;2023-07-31T09:39:47;18.50;99.90
20498;DHT22;10407;53.238;10.448;2023-07-31T09:42:24;18.70;99.90
20498;DHT22;10407;53.238;10.448;2023-07-31T09:44:45;18.60;99.90
20498;DHT22;10407;53.238;10.448;2023-07-31T09:47:23;19.00;99.90
20498;DHT22;10407;53.238;10.448;2023-07-31T09:49:51;18.90;99.90
20498;DHT22;10407;53.238;10.448;2023-07-31T09:52:18;19.00;99.90
20498;DHT22;10407;53.238;10.448;2023-07-31T09:54:46;18.70;99.90
20498;DHT22;10407;53.238;10.448;2023-07-31T09:57:14;18.80;99.90
20498;DHT22;10407;53.238;10.448;2023-07-31T09:59:43;18.60;99.90
20498;DHT22;10407;53.238;10.448;2023-07-31T10:02:15;18.80;99.90
20498;DHT22;10407;53.238;10.448;2023-07-31T10:04:44;19.30;99.90
20498;DHT22;10407;53.238;10.448;2023-07-31T10:07:12;19.20;99.90
20498;DHT22;10407;53.238;10.448;2023-07-31T10:09:41;19.10;99.90
20498;DHT22;10407;53.238;10.448;2023-07-31T10:12:10;19.00;99.90
20498;DHT22;10407;53.238;10.448;2023-07-31T10:14:40;19.40;99.90
20498;DHT22;10407;53.238;10.448;2023-07-31T10:17:08;19.20;99.90
20498;DHT22;10407;53.238;10.448;2023-07-31T10:19:37;19.60;99.90
20498;DHT22;10407;53.238;10.448;2023-07-31T10:22:06;19.40;99.90
20498;DHT22;10407;53.238;10.448;2023-07-31T10:24:34;19.60;99.90
20498;DHT22;10407;53.238;10.448;2023-07-31T10:27:04;19.70;99.90
20498;DHT22;10407;53.238;10.448;2023-07-31T10:29:32;19.50;99.90
20498;DHT22;10407;53.238;10.448;2023-07-31T10:32:00;19.40;99.90
20498;DHT22;10407;53.238;10.448;2023-07-31T10:34:29;19.30;99.90
20498;DHT22;10407;53.238;10.448;2023-07-31T10:37:21;19.70;99.90
20498;DHT22;10407;53.238;10.448;2023-07-31T10:45:06;19.50;99.90
20498;DHT22;10407;53.238;10.448;2023-07-31T10:47:45;19.40;99.90
20498;DHT22;10407;53.238;10.448;2023-07-31T10:50:23;19.40;99.90
20498;DHT22;10407;53.238;10.448;2023-07-31T10:52:52;19.40;99.90
20498;DHT22;10407;53.238;10.448;2023-07-31T10:55:31;19.30;99.90
20498;DHT22;10407;53.238;10.448;2023-07-31T10:58:07;19.20;99.90
20498;DHT22;10407;53.238;10.448;2023-07-31T11:00:37;19.20;99.90
20498;DHT22;10407;53.238;10.448;2023-07-31T11:03:07;19.00;99.90
20498;DHT22;10407;53.238;10.448;2023-07-31T11:05:50;19.30;99.90
20498;DHT22;10407;53.238;10.448;2023-07-31T11:08:24;19.40;99.90
20498;DHT22;10407;53.238;10.448;2023-07-31T11:11:27;19.20;99.90
20498;DHT22;10407;53.238;10.448;2023-07-31T11:13:29;19.40;99.90
20498;DHT22;10407;53.238;10.448;2023-07-31T11:15:57;19.50;99.90
20498;DHT22;10407;53.238;10.448;2023-07-31T11:18:26;19.30;99.90
20498;DHT22;10407;53.238;10.448;2023-07-31T11:20:54;19.30;99.90
20498;DHT22;10407;53.238;10.448;2023-07-31T11:23:22;19.30;99.90
20498;DHT22;10407;53.238;10.448;2023-07-31T11:25:50;19.20;99.90
20498;DHT22;10407;53.238;10.448;2023-07-31T11:28:19;19.40;99.90
20498;DHT22;10407;53.238;10.448;2023-07-31T11:30:46;19.40;99.90
20498;DHT22;10407;53.238;10.448;2023-07-31T11:33:14;19.50;99.90
20498;DHT22;10407;53.238;10.448;2023-07-31T11:35:44;19.40;99.90
20498;DHT22;10407;53.238;10.448;2023-07-31T11:38:33;19.60;99.90
20498;DHT22;10407;53.238;10.448;2023-07-31T11:40:45;20.00;99.90
20498;DHT22;10407;53.238;10.448;2023-07-31T11:43:13;19.50;99.90
20498;DHT22;10407;53.238;10.448;2023-07-31T11:45:44;19.50;99.90
20498;DHT22;10407;53.238;10.448;2023-07-31T11:48:19;19.60;99.90
20498;DHT22;10407;53.238;10.448;2023-07-31T11:50:53;19.80;99.90
20498;DHT22;10407;53.238;10.448;2023-07-31T11:53:21;20.00;99.90
20498;DHT22;10407;53.238;10.448;2023-07-31T11:55:48;19.80;99.90
20498;DHT22;10407;53.238;10.448;2023-07-31T11:58:16;19.50;99.90
20498;DHT22;10407;53.238;10.448;2023-07-31T12:00:45;19.40;99.90
20498;DHT22;10407;53.238;10.448;2023-07-31T12:03:14;19.50;99.90
20498;DHT22;10407;53.238;10.448;2023-07-31T12:05:42;19.20;99.90
20498;DHT22;10407;53.238;10.448;2023-07-31T12:08:12;19.60;99.90
20498;DHT22;10407;53.238;10.448;2023-07-31T12:10:40;19.30;99.90
20498;DHT22;10407;53.238;10.448;2023-07-31T12:13:21;19.30;99.90
20498;DHT22;10407;53.238;10.448;2023-07-31T12:15:41;19.50;99.90
20498;DHT22;10407;53.238;10.448;2023-07-31T12:18:13;19.70;99.90
20498;DHT22;10407;53.238;10.448;2023-07-31T12:20:44;19.80;99.90
20498;DHT22;10407;53.238;10.448;2023-07-31T12:23:30;19.50;99.90
20498;DHT22;10407;53.238;10.448;2023-07-31T12:26:04;19.50;99.90
20498;DHT22;10407;53.238;10.448;2023-07-31T12:28:36;19.60;99.90
20498;DHT22;10407;53.238;10.448;2023-07-31T12:31:09;19.30;99.90
20498;DHT22;10407;53.238;10.448;2023-07-31T12:33:38;19.30;99.90
20498;DHT22;10407;53.238;10.448;2023-07-31T12:36:15;19.20;99.90
20498;DHT22;10407;53.238;10.448;2023-07-31T12:38:39;19.30;99.90
20498;DHT22;10407;53.238;10.448;2023-07-31T12:41:07;19.60;99.90
20498;DHT22;10407;53.238;10.448;2023-07-31T12:43:36;19.50;99.90
20498;DHT22;10407;53.238;10.448;2023-07-31T12:49:26;19.20;99.90
20498;DHT22;10407;53.238;10.448;2023-07-31T12:51:53;19.40;99.90
20498;DHT22;10407;53.238;10.448;2023-07-31T12:54:21;19.20;99.90
20498;DHT22;10407;53.238;10.448;2023-07-31T12:56:48;19.30;99.90
20498;DHT22;10407;53.238;10.448;2023-07-31T12:59:16;19.30;99.90
20498;DHT22;10407;53.238;10.448;2023-07-31T13:01:43;19.40;99.90
20498;DHT22;10407;53.238;10.448;2023-07-31T13:04:11;19.40;99.90
20498;DHT22;10407;53.238;10.448;2023-07-31T13:06:39;19.70;99.90
20498;DHT22;10407;53.238;10.448;2023-07-31T13:09:07;19.30;99.90
20498;DHT22;10407;53.238;10.448;2023-07-31T13:11:35;19.00;99.90
20498;DHT22;10407;53.238;10.448;2023-07-31T13:14:03;19.10;99.90
20498;DHT22;10407;53.238;10.448;2023-07-31T13:16:31;18.90;99.90
20498;DHT22;10407;53.238;10.448;2023-07-31T13:18:58;19.10;99.90
20498;DHT22;10407;53.238;10.448;2023-07-31T13:21:26;19.10;99.90
20498;DHT22;10407;53.238;10.448;2023-07-31T13:23:53;19.10;99.90
20498;DHT22;10407;53.238;10.448;2023-07-31T13:26:21;19.10;99.90
20498;DHT22;10407;53.238;10.448;2023-07-31T13:28:48;19.20;99.90
20498;DHT22;10407;53.238;10.448;2023-07-31T13:31:16;19.30;99.90
20498;DHT22;10407;53.238;10.448;2023-07-31T13:33:43;19.30;99.90
20498;DHT22;10407;53.238;10.448;2023-07-31T13:36:11;19.10;99.90
20498;DHT22;10407;53.238;10.448;2023-07-31T13:38:40;19.20;99.90
20498;DHT22;10407;53.238;10.448;2023-07-31T13:41:08;19.30;99.90
20498;DHT22;10407;53.238;10.448;2023-07-31T13:43:35;19.30;99.90
20498;DHT22;10407;53.238;10.448;2023-07-31T13:46:03;19.20;99.90
20498;DHT22;10407;53.238;10.448;2023-07-31T13:48:36;19.30;99.90
20498;DHT22;10407;53.238;10.448;2023-07-31T13:51:04;19.30;99.90
20498;DHT22;10407;53.238;10.448;2023-07-31T13:53:31;19.00;99.90
20498;DHT22;10407;53.238;10.448;2023-07-31T13:55:59;19.10;99.90
20498;DHT22;10407;53.238;10.448;2023-07-31T13:58:27;19.20;99.90
20498;DHT22;10407;53.238;10.448;2023-07-31T14:00:55;19.20;99.90
20498;DHT22;10407;53.238;10.448;2023-07-31T14:03:23;18.90;99.90
20498;DHT22;10407;53.238;10.448;2023-07-31T14:05:51;19.00;99.90
20498;DHT22;10407;53.238;10.448;2023-07-31T14:08:19;19.10;99.90
20498;DHT22;10407;53.238;10.448;2023-07-31T14:10:47;19.30;99.90
20498;DHT22;10407;53.238;10.448;2023-07-31T14:13:14;19.30;99.90
20498;DHT22;10407;53.238;10.448;2023-07-31T14:15:42;19.20;99.90
20498;DHT22;10407;53.238;10.448;2023-07-31T14:18:10;18.80;99.90
20498;DHT22;10407;53.238;10.448;2023-07-31T14:20:38;18.80;99.90
20498;DHT22;10407;53.238;10.448;2023-07-31T14:23:05;18.90;99.90
20498;DHT22;10407;53.238;10.448;2023-07-31T14:25:33;18.90;99.90
20498;DHT22;10407;53.238;10.448;2023-07-31T14:28:00;19.10;99.90
20498;DHT22;10407;53.238;10.448;2023-07-31T14:30:28;19.20;99.90
20498;DHT22;10407;53.238;10.448;2023-07-31T14:32:55;19.10;99.90
20498;DHT22;10407;53.238;10.448;2023-07-31T14:35:23;19.20;99.90
20498;DHT22;10407;53.238;10.448;2023-07-31T14:37:50;19.30;99.90
20498;DHT22;10407;53.238;10.448;2023-07-31T14:40:18;19.20;99.90
20498;DHT22;10407;53.238;10.448;2023-07-31T14:42:46;19.10;99.90
20498;DHT22;10407;53.238;10.448;2023-07-31T14:45:13;18.90;99.90
20498;DHT22;10407;53.238;10.448;2023-07-31T14:47:40;19.10;99.90
20498;DHT22;10407;53.238;10.448;2023-07-31T14:50:08;19.30;99.90
20498;DHT22;10407;53.238;10.448;2023-07-31T14:52:37;19.20;99.90
20498;DHT22;10407;53.238;10.448;2023-07-31T14:55:05;19.00;99.90
20498;DHT22;10407;53.238;10.448;2023-07-31T14:57:33;19.00;99.90
20498;DHT22;10407;53.238;10.448;2023-07-31T15:00:00;18.90;99.90
20498;DHT22;10407;53.238;10.448;2023-07-31T15:02:28;18.80;99.90
20498;DHT22;10407;53.238;10.448;2023-07-31T15:04:55;18.80;99.90
20498;DHT22;10407;53.238;10.448;2023-07-31T15:07:23;18.90;99.90
20498;DHT22;10407;53.238;10.448;2023-07-31T15:09:50;18.90;99.90
20498;DHT22;10407;53.238;10.448;2023-07-31T15:12:18;18.80;99.90
20498;DHT22;10407;53.238;10.448;2023-07-31T15:14:45;18.80;99.90
20498;DHT22;10407;53.238;10.448;2023-07-31T15:17:13;18.90;99.90
20498;DHT22;10407;53.238;10.448;2023-07-31T15:19:40;19.00;99.90
20498;DHT22;10407;53.238;10.448;2023-07-31T15:22:08;19.20;99.90
20498;DHT22;10407;53.238;10.448;2023-07-31T15:24:36;18.90;99.90
20498;DHT22;10407;53.238;10.448;2023-07-31T15:27:03;19.00;99.90
20498;DHT22;10407;53.238;10.448;2023-07-31T15:29:31;19.00;99.90
20498;DHT22;10407;53.238;10.448;2023-07-31T15:32:00;18.70;99.90
20498;DHT22;10407;53.238;10.448;2023-07-31T15:34:28;18.80;99.90
20498;DHT22;10407;53.238;10.448;2023-07-31T15:36:55;18.90;99.90
20498;DHT22;10407;53.238;10.448;2023-07-31T15:39:23;18.90;99.90
20498;DHT22;10407;53.238;10.448;2023-07-31T15:41:50;19.00;99.90
20498;DHT22;10407;53.238;10.448;2023-07-31T15:44:18;18.80;99.90